createdAt,value
2018-02-26T00:00:01.877Z,-3.00
2018-02-26T00:02:29.402Z,-3.00
2018-02-26T00:04:56.815Z,-3.00
2018-02-26T00:07:24.430Z,-3.00
2018-02-26T00:09:52.589Z,-3.00
2018-02-26T00:12:20.778Z,-3.00
2018-02-26T00:14:48.955Z,-3.00
2018-02-26T00:17:17.141Z,-3.00
2018-02-26T00:19:44.555Z,-3.00
2018-02-26T00:22:15.772Z,-2.90
2018-02-26T00:24:44.870Z,-3.10
2018-02-26T00:27:12.278Z,-3.10
2018-02-26T00:29:39.705Z,-3.20
2018-02-26T00:32:07.110Z,-3.20
2018-02-26T00:34:34.576Z,-3.20
2018-02-26T00:37:01.998Z,-3.20
2018-02-26T00:39:29.439Z,-3.10
2018-02-26T00:41:56.837Z,-3.10
2018-02-26T00:44:24.279Z,-3.20
2018-02-26T00:46:52.451Z,-3.30
2018-02-26T00:49:20.629Z,-3.30
2018-02-26T00:51:48.873Z,-3.30
2018-02-26T00:54:16.292Z,-3.30
2018-02-26T00:56:43.687Z,-3.20
2018-02-26T00:59:11.089Z,-3.20
2018-02-26T01:01:38.514Z,-3.20
2018-02-26T01:04:05.990Z,-3.20
2018-02-26T01:06:34.148Z,-3.20
2018-02-26T01:09:02.329Z,-3.20
2018-02-26T01:11:29.827Z,-3.20
2018-02-26T01:13:57.242Z,-3.20
2018-02-26T01:16:24.781Z,-3.20
2018-02-26T01:18:52.257Z,-3.20
2018-02-26T01:21:19.711Z,-3.20
2018-02-26T01:23:47.134Z,-3.30
2018-02-26T01:26:15.954Z,-3.30
2018-02-26T01:28:45.049Z,-3.40
2018-02-26T01:31:12.555Z,-3.40
2018-02-26T01:33:39.969Z,-3.40
2018-02-26T01:36:07.390Z,-3.40
2018-02-26T01:38:34.805Z,-3.40
2018-02-26T01:41:02.217Z,-3.40
2018-02-26T01:43:29.618Z,-3.50
2018-02-26T01:45:57.073Z,-3.40
2018-02-26T01:48:24.504Z,-3.50
2018-02-26T01:51:04.494Z,-3.40
2018-02-26T01:53:31.909Z,-3.40
2018-02-26T01:55:59.317Z,-3.30
2018-02-26T01:58:26.726Z,-3.40
2018-02-26T02:00:54.178Z,-3.40
2018-02-26T02:03:21.586Z,-3.40
2018-02-26T02:05:48.998Z,-3.30
2018-02-26T02:08:16.432Z,-3.30
2018-02-26T02:10:44.617Z,-3.30
2018-02-26T02:13:12.034Z,-3.30
2018-02-26T02:15:39.488Z,-3.20
2018-02-26T02:18:06.959Z,-3.20
2018-02-26T02:20:34.443Z,-3.20
2018-02-26T02:23:01.910Z,-3.10
2018-02-26T02:25:29.331Z,-3.20
2018-02-26T02:27:56.744Z,-3.30
2018-02-26T02:30:24.156Z,-3.30
2018-02-26T02:32:51.658Z,-3.20
2018-02-26T02:35:19.842Z,-3.10
2018-02-26T02:37:47.262Z,-3.20
2018-02-26T02:40:14.690Z,-3.10
2018-02-26T02:42:42.098Z,-3.20
2018-02-26T02:45:09.528Z,-3.30
2018-02-26T02:47:36.983Z,-3.40
2018-02-26T02:50:04.492Z,-3.40
2018-02-26T02:52:31.925Z,-3.50
2018-02-26T02:54:59.356Z,-3.60
2018-02-26T02:57:26.772Z,-3.60
2018-02-26T02:59:54.251Z,-3.60
2018-02-26T03:02:21.658Z,-3.60
2018-02-26T03:04:49.083Z,-3.50
2018-02-26T03:07:17.355Z,-3.60
2018-02-26T03:09:44.830Z,-3.60
2018-02-26T03:12:12.251Z,-3.50
2018-02-26T03:14:39.764Z,-3.50
2018-02-26T03:17:07.246Z,-3.50
2018-02-26T03:19:35.406Z,-3.70
2018-02-26T03:22:03.577Z,-3.80
2018-02-26T03:24:30.990Z,-3.80
2018-02-26T03:26:58.457Z,-3.80
2018-02-26T03:29:25.886Z,-3.70
2018-02-26T03:31:53.286Z,-3.60
2018-02-26T03:34:20.754Z,-3.60
2018-02-26T03:36:48.173Z,-3.60
2018-02-26T03:39:15.587Z,-3.50
2018-02-26T03:41:43.158Z,-3.50
2018-02-26T03:44:10.576Z,-3.50
2018-02-26T03:46:37.976Z,-3.50
2018-02-26T03:49:06.157Z,-3.60
2018-02-26T03:51:34.338Z,-3.60
2018-02-26T03:54:02.525Z,-3.60
2018-02-26T03:56:30.754Z,-3.70
2018-02-26T03:58:58.212Z,-3.80
2018-02-26T04:01:25.623Z,-3.80
2018-02-26T04:03:53.048Z,-3.80
2018-02-26T04:06:20.454Z,-3.80
2018-02-26T04:08:47.985Z,-3.90
2018-02-26T04:11:15.400Z,-3.80
2018-02-26T04:13:42.811Z,-3.80
2018-02-26T04:16:10.998Z,-3.90
2018-02-26T04:18:38.409Z,-3.90
2018-02-26T04:21:05.834Z,-3.90
2018-02-26T04:23:33.245Z,-3.90
2018-02-26T04:26:00.678Z,-3.90
2018-02-26T04:28:28.099Z,-3.90
2018-02-26T04:30:55.510Z,-4.00
2018-02-26T04:33:22.979Z,-4.00
2018-02-26T04:35:50.406Z,-4.10
2018-02-26T04:38:17.987Z,-4.10
2018-02-26T04:40:45.510Z,-4.20
2018-02-26T04:43:12.920Z,-4.30
2018-02-26T04:45:40.343Z,-4.30
2018-02-26T04:48:07.782Z,-4.30
2018-02-26T04:50:35.209Z,-4.40
2018-02-26T04:53:02.626Z,-4.30
2018-02-26T04:55:30.037Z,-4.40
2018-02-26T04:57:57.450Z,-4.50
2018-02-26T05:00:24.858Z,-4.50
2018-02-26T05:02:52.298Z,-4.40
2018-02-26T05:05:19.736Z,-4.40
2018-02-26T05:07:47.167Z,-4.40
2018-02-26T05:10:14.576Z,-4.40
2018-02-26T05:12:42.754Z,-4.60
2018-02-26T05:15:10.950Z,-4.70
2018-02-26T05:17:39.119Z,-4.70
2018-02-26T05:20:06.546Z,-4.70
2018-02-26T05:22:33.988Z,-4.70
2018-02-26T05:25:01.432Z,-4.60
2018-02-26T05:27:29.117Z,-4.70
2018-02-26T05:29:57.304Z,-4.70
2018-02-26T05:32:25.486Z,-4.80
2018-02-26T05:34:53.699Z,-4.80
2018-02-26T05:37:21.110Z,-4.80
2018-02-26T05:39:49.641Z,-4.90
2018-02-26T05:42:17.820Z,-4.80
2018-02-26T05:44:46.006Z,-4.70
2018-02-26T05:47:14.210Z,-4.70
2018-02-26T05:49:41.622Z,-4.70
2018-02-26T05:52:09.037Z,-4.70
2018-02-26T05:54:36.518Z,-4.70
2018-02-26T05:57:03.962Z,-4.80
2018-02-26T05:59:32.134Z,-4.80
2018-02-26T06:01:59.542Z,-4.80
2018-02-26T06:04:26.980Z,-4.80
2018-02-26T06:06:54.483Z,-4.90
2018-02-26T06:09:21.894Z,-4.80
2018-02-26T06:11:50.098Z,-4.70
2018-02-26T06:14:17.523Z,-4.70
2018-02-26T06:16:44.938Z,-4.70
2018-02-26T06:19:13.124Z,-4.60
2018-02-26T06:21:41.313Z,-4.50
2018-02-26T06:24:09.513Z,-4.50
2018-02-26T06:26:37.696Z,-4.40
2018-02-26T06:29:05.870Z,-4.40
2018-02-26T06:31:34.049Z,-4.40
2018-02-26T06:34:01.606Z,-4.40
2018-02-26T06:36:29.021Z,-4.40
2018-02-26T06:38:56.459Z,-4.40
2018-02-26T06:41:23.968Z,-4.40
2018-02-26T06:43:51.434Z,-4.40
2018-02-26T06:46:19.853Z,-4.40
2018-02-26T06:48:47.272Z,-4.40
2018-02-26T06:51:15.482Z,-4.30
2018-02-26T06:53:42.938Z,-4.30
2018-02-26T06:56:10.345Z,-4.30
2018-02-26T06:58:37.793Z,-4.20
2018-02-26T07:01:05.202Z,-4.30
2018-02-26T07:03:32.618Z,-4.40
2018-02-26T07:06:00.025Z,-4.40
2018-02-26T07:08:27.449Z,-4.40
2018-02-26T07:10:54.921Z,-4.30
2018-02-26T07:13:22.334Z,-4.20
2018-02-26T07:15:51.184Z,-4.10
2018-02-26T07:18:18.602Z,-4.10
2018-02-26T07:20:46.044Z,-4.10
2018-02-26T07:23:13.445Z,-4.20
2018-02-26T07:25:40.895Z,-4.20
2018-02-26T07:28:08.278Z,-4.20
2018-02-26T07:30:36.637Z,-4.10
2018-02-26T07:33:04.051Z,-4.10
2018-02-26T07:35:31.560Z,-4.00
2018-02-26T07:37:59.728Z,-3.90
2018-02-26T07:40:27.897Z,-3.90
2018-02-26T07:42:56.116Z,-4.10
2018-02-26T07:45:23.545Z,-4.20
2018-02-26T07:47:52.624Z,-4.00
2018-02-26T07:50:20.951Z,-4.00
2018-02-26T07:52:49.272Z,-3.80
2018-02-26T07:55:17.458Z,-3.70
2018-02-26T07:57:45.632Z,-3.70
2018-02-26T08:00:13.237Z,-3.70
2018-02-26T08:02:40.646Z,-3.80
2018-02-26T08:05:08.835Z,-3.70
2018-02-26T08:07:37.155Z,-3.70
2018-02-26T08:10:04.553Z,-3.70
2018-02-26T08:12:31.959Z,-3.60
2018-02-26T08:15:00.141Z,-3.60
2018-02-26T08:17:27.561Z,-3.60
2018-02-26T08:19:55.012Z,-3.70
2018-02-26T08:22:23.175Z,-3.80
2018-02-26T08:24:51.596Z,-3.80
2018-02-26T08:27:19.007Z,-3.90
2018-02-26T08:29:46.440Z,-4.00
2018-02-26T08:32:14.175Z,-4.10
2018-02-26T08:34:42.363Z,-3.90
2018-02-26T08:37:10.538Z,-3.80
2018-02-26T08:39:37.961Z,-3.80
2018-02-26T08:42:05.383Z,-3.70
2018-02-26T08:44:33.613Z,-3.60
2018-02-26T08:47:01.064Z,-3.70
2018-02-26T08:49:28.523Z,-3.30
2018-02-26T08:51:55.901Z,-3.40
2018-02-26T08:54:23.514Z,-3.50
2018-02-26T08:56:52.674Z,-3.40
2018-02-26T08:59:20.123Z,-3.40
2018-02-26T09:01:47.572Z,-3.30
2018-02-26T09:04:15.091Z,-3.30
2018-02-26T09:06:42.587Z,-3.20
2018-02-26T09:09:10.026Z,-3.20
2018-02-26T09:11:38.202Z,-3.20
2018-02-26T09:14:05.682Z,-3.20
2018-02-26T09:16:33.092Z,-3.00
2018-02-26T09:19:00.511Z,-2.90
2018-02-26T09:21:27.937Z,-2.90
2018-02-26T09:23:55.351Z,-2.90
2018-02-26T09:26:22.926Z,-2.80
2018-02-26T09:28:51.110Z,-2.90
2018-02-26T09:31:18.586Z,-2.90
2018-02-26T09:33:46.043Z,-2.80
2018-02-26T09:36:14.231Z,-2.70
2018-02-26T09:38:41.650Z,-2.70
2018-02-26T09:41:09.066Z,-2.50
2018-02-26T09:43:37.237Z,-2.60
2018-02-26T09:46:05.410Z,-2.60
2018-02-26T09:48:33.744Z,-2.60
2018-02-26T09:51:01.161Z,-2.60
2018-02-26T09:53:29.378Z,-2.50
2018-02-26T09:55:56.842Z,-2.50
2018-02-26T09:58:24.318Z,-2.30
2018-02-26T10:00:51.738Z,-2.20
2018-02-26T10:03:19.265Z,-2.30
2018-02-26T10:05:46.688Z,-2.10
2018-02-26T10:08:14.124Z,-2.20
2018-02-26T10:10:41.536Z,-2.20
2018-02-26T10:13:09.757Z,-2.00
2018-02-26T10:15:37.263Z,-2.10
2018-02-26T10:18:04.790Z,-2.10
2018-02-26T10:20:32.256Z,-1.90
2018-02-26T10:23:00.542Z,-1.60
2018-02-26T10:25:27.985Z,-1.60
2018-02-26T10:27:56.170Z,-1.80
2018-02-26T10:30:23.601Z,-1.80
2018-02-26T10:32:51.045Z,-1.60
2018-02-26T10:35:18.634Z,-1.30
2018-02-26T10:37:46.072Z,-1.30
2018-02-26T10:40:13.499Z,-1.30
2018-02-26T10:42:40.915Z,-1.40
2018-02-26T10:45:08.307Z,-1.40
2018-02-26T10:47:35.745Z,-1.30
2018-02-26T10:50:03.901Z,-1.30
2018-02-26T10:52:32.082Z,-1.20
2018-02-26T10:54:59.594Z,-1.20
2018-02-26T10:57:27.777Z,-1.10
2018-02-26T10:59:55.245Z,-1.10
2018-02-26T11:02:24.455Z,-1.10
2018-02-26T11:04:52.622Z,-1.20
2018-02-26T11:07:20.807Z,-1.30
2018-02-26T11:09:49.002Z,-1.30
2018-02-26T11:12:17.153Z,-1.30
2018-02-26T11:14:44.619Z,-1.30
2018-02-26T11:17:12.046Z,-1.40
2018-02-26T11:19:39.503Z,-1.40
2018-02-26T11:22:06.912Z,-1.40
2018-02-26T11:24:34.335Z,-1.60
2018-02-26T11:27:01.788Z,-1.50
2018-02-26T11:29:29.999Z,-1.40
2018-02-26T11:31:58.179Z,-1.50
2018-02-26T11:34:25.705Z,-1.50
2018-02-26T11:36:54.143Z,-1.50
2018-02-26T11:39:21.546Z,-1.40
2018-02-26T11:41:48.982Z,-1.20
2018-02-26T11:44:16.393Z,-0.90
2018-02-26T11:46:43.936Z,-0.30
2018-02-26T11:49:11.382Z,-0.20
2018-02-26T11:51:38.796Z,-0.20
2018-02-26T11:54:06.313Z,-0.60
2018-02-26T11:56:33.734Z,-0.70
2018-02-26T11:59:01.269Z,-0.70
2018-02-26T12:01:28.655Z,-0.80
2018-02-26T12:03:56.074Z,-1.10
2018-02-26T12:06:25.161Z,-1.30
2018-02-26T12:08:54.262Z,-1.20
2018-02-26T12:11:21.673Z,-1.20
2018-02-26T12:13:49.084Z,-1.20
2018-02-26T12:16:16.504Z,-1.10
2018-02-26T12:18:43.909Z,-1.20
2018-02-26T12:21:11.338Z,-1.10
2018-02-26T12:23:39.529Z,-0.30
2018-02-26T12:26:06.989Z,-0.30
2018-02-26T12:28:34.472Z,0.70
2018-02-26T12:31:02.635Z,1.50
2018-02-26T12:33:30.824Z,0.80
2018-02-26T12:35:58.999Z,0.40
2018-02-26T12:38:26.494Z,0.40
2018-02-26T12:40:54.668Z,0.10
2018-02-26T12:43:22.849Z,0.10
2018-02-26T12:45:51.022Z,0.30
2018-02-26T12:48:18.621Z,0.30
2018-02-26T12:50:46.045Z,0.00
2018-02-26T12:53:13.446Z,-0.50
2018-02-26T12:55:40.934Z,-0.80
2018-02-26T12:58:09.102Z,-1.00
2018-02-26T13:00:36.510Z,-1.00
2018-02-26T13:03:03.933Z,-1.10
2018-02-26T13:05:32.131Z,-1.10
2018-02-26T13:07:59.553Z,-1.10
2018-02-26T13:10:26.959Z,-1.10
2018-02-26T13:12:55.871Z,-1.00
2018-02-26T13:15:23.335Z,-1.10
2018-02-26T13:17:50.763Z,0.20
2018-02-26T13:20:18.178Z,1.90
2018-02-26T13:22:45.650Z,2.60
2018-02-26T13:25:13.085Z,2.50
2018-02-26T13:27:41.304Z,1.50
2018-02-26T13:30:08.706Z,1.50
2018-02-26T13:32:36.114Z,0.70
2018-02-26T13:35:04.286Z,0.10
2018-02-26T13:37:31.722Z,0.00
2018-02-26T13:39:59.169Z,-0.30
2018-02-26T13:42:26.582Z,-0.30
2018-02-26T13:44:54.113Z,-0.30
2018-02-26T13:47:21.534Z,-0.60
2018-02-26T13:52:25.420Z,-0.80
2018-02-26T13:54:52.885Z,-0.80
2018-02-26T13:57:20.343Z,0.40
2018-02-26T13:59:48.522Z,0.10
2018-02-26T14:02:16.703Z,-0.50
2018-02-26T14:04:44.933Z,-1.10
2018-02-26T14:07:12.346Z,-1.10
2018-02-26T14:09:39.749Z,-1.20
2018-02-26T14:12:07.165Z,-1.30
2018-02-26T14:14:34.691Z,-1.30
2018-02-26T14:17:02.888Z,-1.50
2018-02-26T14:19:30.348Z,-1.60
2018-02-26T14:21:58.536Z,-1.60
2018-02-26T14:24:26.001Z,-1.60
2018-02-26T14:26:53.581Z,-1.60
2018-02-26T14:29:21.044Z,-1.50
2018-02-26T14:31:49.194Z,0.10
2018-02-26T14:34:17.428Z,0.60
2018-02-26T14:36:44.883Z,0.60
2018-02-26T14:39:13.046Z,0.60
2018-02-26T14:41:41.295Z,1.20
2018-02-26T14:44:08.658Z,1.20
2018-02-26T14:46:36.068Z,1.00
2018-02-26T14:49:04.239Z,0.70
2018-02-26T14:51:31.750Z,0.70
2018-02-26T14:53:59.214Z,0.00
2018-02-26T14:56:27.379Z,-0.90
2018-02-26T14:58:56.508Z,-1.00
2018-02-26T15:01:23.982Z,-1.00
2018-02-26T15:03:52.157Z,0.10
2018-02-26T15:06:20.322Z,1.20
2018-02-26T15:08:48.518Z,2.30
2018-02-26T15:11:16.738Z,2.90
2018-02-26T15:13:44.138Z,2.90
2018-02-26T15:16:11.650Z,2.80
2018-02-26T15:18:39.065Z,3.10
2018-02-26T15:21:06.499Z,2.90
2018-02-26T15:23:33.909Z,3.00
2018-02-26T15:26:01.329Z,3.70
2018-02-26T15:28:29.486Z,3.40
2018-02-26T15:30:56.891Z,3.40
2018-02-26T15:33:24.310Z,3.40
2018-02-26T15:35:51.868Z,3.50
2018-02-26T15:38:19.295Z,2.60
2018-02-26T15:40:47.477Z,2.10
2018-02-26T15:43:14.886Z,2.10
2018-02-26T15:45:42.304Z,0.80
2018-02-26T15:48:10.491Z,0.20
2018-02-26T15:50:38.071Z,0.20
2018-02-26T15:53:06.260Z,0.10
2018-02-26T15:55:33.722Z,-0.20
2018-02-26T15:58:01.926Z,-0.80
2018-02-26T16:00:29.335Z,-0.90
2018-02-26T16:02:57.167Z,-0.90
2018-02-26T16:05:24.579Z,-0.90
2018-02-26T16:07:51.990Z,-1.00
2018-02-26T16:10:19.440Z,-1.10
2018-02-26T16:12:47.607Z,-1.20
2018-02-26T16:15:15.024Z,-1.20
2018-02-26T16:17:42.477Z,-1.20
2018-02-26T16:20:10.670Z,-1.20
2018-02-26T16:22:38.114Z,-1.20
2018-02-26T16:25:06.316Z,-1.20
2018-02-26T16:27:33.724Z,-1.30
2018-02-26T16:30:01.141Z,-1.40
2018-02-26T16:32:29.339Z,-1.30
2018-02-26T16:34:58.296Z,-1.30
2018-02-26T16:37:25.716Z,-1.40
2018-02-26T16:39:53.186Z,-1.30
2018-02-26T16:42:21.484Z,-1.40
2018-02-26T16:44:49.638Z,-1.30
2018-02-26T16:47:17.823Z,-1.50
2018-02-26T16:49:46.031Z,-1.50
2018-02-26T16:52:13.433Z,-1.50
2018-02-26T16:54:40.885Z,-1.50
2018-02-26T16:57:08.335Z,-1.70
2018-02-26T16:59:35.734Z,-1.70
2018-02-26T17:02:03.180Z,-1.90
2018-02-26T17:04:30.627Z,-2.00
2018-02-26T17:06:58.061Z,-2.00
2018-02-26T17:09:25.449Z,-1.90
2018-02-26T17:11:53.622Z,-2.10
2018-02-26T17:14:21.797Z,-2.10
2018-02-26T17:16:49.213Z,-2.10
2018-02-26T17:19:16.677Z,-2.10
2018-02-26T17:21:44.180Z,-2.10
2018-02-26T17:24:11.723Z,-2.10
2018-02-26T17:26:39.892Z,-2.00
2018-02-26T17:29:07.369Z,-2.10
2018-02-26T17:31:34.808Z,-2.00
2018-02-26T17:34:02.415Z,-1.90
2018-02-26T17:36:29.882Z,-1.80
2018-02-26T17:38:58.226Z,-1.90
2018-02-26T17:41:25.754Z,-1.90
2018-02-26T17:43:53.169Z,-1.90
2018-02-26T17:46:20.682Z,-1.90
2018-02-26T17:48:48.147Z,-2.00
2018-02-26T17:51:15.557Z,-2.00
2018-02-26T17:53:42.985Z,-2.00
2018-02-26T17:56:10.451Z,-2.00
2018-02-26T17:58:38.022Z,-2.00
2018-02-26T18:01:05.473Z,-2.00
2018-02-26T18:03:32.967Z,-2.00
2018-02-26T18:06:00.396Z,-2.10
2018-02-26T18:08:29.030Z,-2.10
2018-02-26T18:10:56.496Z,-2.10
2018-02-26T18:13:23.923Z,-2.10
2018-02-26T18:15:51.336Z,-2.10
2018-02-26T18:18:18.759Z,-2.20
2018-02-26T18:20:46.173Z,-2.20
2018-02-26T18:23:13.616Z,-2.20
2018-02-26T18:25:41.840Z,-2.30
2018-02-26T18:28:09.192Z,-2.30
2018-02-26T19:00:00.005Z,-2.90
2018-02-26T19:02:27.437Z,-2.90
2018-02-26T19:04:54.879Z,-3.00
2018-02-26T19:07:23.068Z,-3.10
2018-02-26T19:09:51.228Z,-3.10
2018-02-26T19:12:19.442Z,-3.10
2018-02-26T19:14:46.894Z,-3.10
2018-02-26T19:17:14.382Z,-3.00
2018-02-26T19:19:41.809Z,-3.20
2018-02-26T19:22:09.987Z,-3.30
2018-02-26T19:24:38.162Z,-3.30
2018-02-26T19:27:05.583Z,-3.30
2018-02-26T19:29:32.985Z,-3.30
2018-02-26T19:32:00.419Z,-3.30
2018-02-26T19:34:27.834Z,-3.30
2018-02-26T19:36:55.351Z,-3.40
2018-02-26T19:39:22.778Z,-3.30
2018-02-26T19:41:50.194Z,-3.40
2018-02-26T19:44:17.595Z,-3.30
2018-02-26T19:46:45.023Z,-3.40
2018-02-26T19:49:12.432Z,-3.40
2018-02-26T19:51:39.889Z,-3.50
2018-02-26T19:54:08.018Z,-3.50
2018-02-26T19:56:36.227Z,-3.50
2018-02-26T19:59:04.387Z,-3.60
2018-02-26T20:01:32.609Z,-3.60
2018-02-26T20:04:01.090Z,-3.60
2018-02-26T20:06:28.510Z,-3.60
2018-02-26T20:08:55.909Z,-3.70
2018-02-26T20:11:24.218Z,-3.70
2018-02-26T20:13:51.639Z,-3.70
2018-02-26T20:16:19.053Z,-3.70
2018-02-26T20:18:46.476Z,-3.70
2018-02-26T20:21:13.902Z,-3.70
2018-02-26T20:23:41.318Z,-3.70
2018-02-26T20:26:09.501Z,-3.70
2018-02-26T20:28:36.921Z,-3.70
2018-02-26T20:31:04.331Z,-3.70
2018-02-26T20:33:31.865Z,-3.80
2018-02-26T20:35:59.323Z,-3.90
2018-02-26T20:38:26.722Z,-3.90
2018-02-26T20:40:54.130Z,-3.80
2018-02-26T20:43:22.368Z,-3.90
2018-02-26T20:45:49.813Z,-3.90
2018-02-26T20:48:17.984Z,-3.90
2018-02-26T20:50:46.157Z,-4.00
2018-02-26T20:53:14.341Z,-4.00
2018-02-26T20:55:42.535Z,-4.00
2018-02-26T20:58:10.717Z,-4.00
2018-02-26T21:00:38.909Z,-4.00
2018-02-26T21:03:07.096Z,-4.00
2018-02-26T21:05:35.275Z,-3.90
2018-02-26T21:08:03.483Z,-3.90
2018-02-26T21:10:32.282Z,-3.90
2018-02-26T21:12:59.750Z,-4.00
2018-02-26T21:15:27.238Z,-4.10
2018-02-26T21:17:54.651Z,-4.00
2018-02-26T21:20:22.066Z,-3.90
2018-02-26T21:22:49.501Z,-3.90
2018-02-26T21:25:17.679Z,-4.00
2018-02-26T21:27:45.184Z,-4.00
2018-02-26T21:30:12.590Z,-4.00
2018-02-26T21:32:40.022Z,-4.00
2018-02-26T21:35:07.477Z,-4.00
2018-02-26T21:37:34.886Z,-4.10
2018-02-26T21:40:02.322Z,-4.10
2018-02-26T21:42:30.507Z,-4.10
2018-02-26T21:44:57.919Z,-4.10
2018-02-26T21:47:25.335Z,-4.20
2018-02-26T21:49:52.810Z,-4.20
2018-02-26T21:52:20.225Z,-4.20
2018-02-26T21:54:47.647Z,-4.20
2018-02-26T21:57:15.058Z,-4.20
2018-02-26T21:59:42.475Z,-4.40
2018-02-26T22:02:09.874Z,-4.50
2018-02-26T22:04:37.328Z,-4.50
2018-02-26T22:07:04.714Z,-4.30
2018-02-26T22:09:32.966Z,-4.40
2018-02-26T22:12:00.373Z,-4.40
2018-02-26T22:14:27.917Z,-4.00
2018-02-26T22:16:55.330Z,-4.10
2018-02-26T22:19:22.807Z,-4.30
2018-02-26T22:21:50.204Z,-4.40
2018-02-26T22:24:18.382Z,-4.20
2018-02-26T22:26:46.573Z,-4.20
2018-02-26T22:29:14.787Z,-4.20
2018-02-26T22:31:42.201Z,-4.20
2018-02-26T22:34:09.609Z,-4.20
2018-02-26T22:36:37.015Z,-4.20
2018-02-26T22:39:04.422Z,-4.30
2018-02-26T22:41:33.310Z,-4.30
2018-02-26T22:44:00.720Z,-4.40
2018-02-26T22:46:28.177Z,-4.50
2018-02-26T22:48:55.627Z,-4.50
2018-02-26T22:51:23.029Z,-4.60
2018-02-26T22:53:50.491Z,-4.50
2018-02-26T22:56:17.953Z,-4.50
2018-02-26T22:58:45.365Z,-4.40
2018-02-26T23:01:12.790Z,-4.40
2018-02-26T23:03:40.192Z,-4.30
2018-02-26T23:06:07.629Z,-4.40
2018-02-26T23:08:35.041Z,-4.50
2018-02-26T23:11:03.849Z,-4.60
2018-02-26T23:13:31.254Z,-4.60
2018-02-26T23:15:58.665Z,-4.50
2018-02-26T23:18:26.078Z,-4.50
2018-02-26T23:20:54.262Z,-4.40
2018-02-26T23:23:22.433Z,-4.50
2018-02-26T23:25:51.371Z,-4.50
2018-02-26T23:28:18.877Z,-4.50
2018-02-26T23:30:46.297Z,-4.60
2018-02-26T23:33:14.511Z,-4.60
2018-02-26T23:35:41.902Z,-4.60
2018-02-26T23:38:09.330Z,-4.60
2018-02-26T23:40:36.744Z,-4.70
2018-02-26T23:43:04.148Z,-4.70
2018-02-26T23:45:32.326Z,-4.70
2018-02-26T23:47:59.824Z,-4.70
2018-02-26T23:50:27.403Z,-4.60
2018-02-26T23:52:54.864Z,-4.60
2018-02-26T23:55:22.342Z,-4.60
2018-02-26T23:57:49.760Z,-4.60
